createdAt,value
2022-10-05T00:01:35.291Z,100871.80
2022-10-05T00:04:18.760Z,100864.00
2022-10-05T00:06:59.392Z,100861.20
2022-10-05T00:09:33.146Z,100864.00
2022-10-05T00:12:16.014Z,100865.20
2022-10-05T00:14:51.002Z,100860.00
2022-10-05T00:17:27.163Z,100860.80
2022-10-05T00:20:00.257Z,100863.40
2022-10-05T00:22:36.399Z,100853.20
2022-10-05T00:25:19.374Z,100854.40
2022-10-05T00:27:57.992Z,100857.20
2022-10-05T00:30:35.286Z,100846.20
2022-10-05T00:33:08.556Z,100842.20
2022-10-05T00:35:41.887Z,100843.20
2022-10-05T00:38:15.015Z,100841.80
2022-10-05T00:41:02.133Z,100834.00
2022-10-05T00:44:04.616Z,100828.20
2022-10-05T00:46:50.971Z,100823.40
2022-10-05T00:49:41.513Z,100817.80
2022-10-05T00:52:22.291Z,100819.20
2022-10-05T00:55:09.703Z,100828.00
2022-10-05T00:57:53.567Z,100823.20
2022-10-05T01:00:29.345Z,100828.20
2022-10-05T01:03:11.138Z,100828.60
2022-10-05T01:06:01.587Z,100830.40
2022-10-05T01:08:48.917Z,100826.60
2022-10-05T01:11:28.454Z,100826.80
2022-10-05T01:14:10.110Z,100820.60
2022-10-05T01:16:52.481Z,100813.00
2022-10-05T01:19:56.031Z,100816.00
2022-10-05T01:22:49.469Z,100807.00
2022-10-05T01:25:32.032Z,100808.20
2022-10-05T01:28:11.934Z,100811.80
2022-10-05T01:30:49.471Z,100809.80
2022-10-05T01:33:31.980Z,100811.20
2022-10-05T01:36:16.123Z,100804.40
2022-10-05T01:38:56.704Z,100798.40
2022-10-05T01:41:34.743Z,100807.20
2022-10-05T01:44:13.321Z,100801.20
2022-10-05T01:46:53.305Z,100799.20
2022-10-05T01:49:45.457Z,100794.20
2022-10-05T01:52:35.699Z,100788.80
2022-10-05T01:55:23.667Z,100788.40
2022-10-05T01:58:10.161Z,100803.00
2022-10-05T02:00:52.251Z,100801.60
2022-10-05T02:03:32.335Z,100794.60
2022-10-05T02:06:11.663Z,100784.60
2022-10-05T02:08:54.319Z,100786.80
2022-10-05T02:11:27.478Z,100788.80
2022-10-05T02:14:08.926Z,100796.60
2022-10-05T02:16:45.161Z,100801.00
2022-10-05T02:19:23.523Z,100803.60
2022-10-05T02:22:04.777Z,100813.80
2022-10-05T02:24:46.166Z,100807.60
2022-10-05T02:27:26.126Z,100807.60
2022-10-05T02:30:03.705Z,100804.80
2022-10-05T02:32:44.992Z,100802.80
2022-10-05T02:35:21.307Z,100798.40
2022-10-05T02:38:08.911Z,100799.80
2022-10-05T02:40:56.206Z,100786.00
2022-10-05T02:43:43.326Z,100793.00
2022-10-05T02:46:32.603Z,100791.20
2022-10-05T02:49:20.994Z,100787.00
2022-10-05T02:52:05.702Z,100786.80
2022-10-05T02:54:51.301Z,100782.00
2022-10-05T02:57:30.314Z,100786.20
2022-10-05T03:00:11.262Z,100781.40
2022-10-05T03:02:50.416Z,100779.60
2022-10-05T03:05:32.278Z,100780.00
2022-10-05T03:08:10.937Z,100783.40
2022-10-05T03:10:56.153Z,100785.00
2022-10-05T03:13:40.787Z,100772.00
2022-10-05T03:16:32.639Z,100773.00
2022-10-05T03:19:23.958Z,100773.40
2022-10-05T03:22:15.710Z,100766.60
2022-10-05T03:25:09.400Z,100756.20
2022-10-05T03:27:51.623Z,100756.20
2022-10-05T03:30:27.783Z,100756.80
2022-10-05T03:33:11.924Z,100745.00
2022-10-05T03:35:58.224Z,100742.20
2022-10-05T03:38:41.043Z,100745.20
2022-10-05T03:41:24.658Z,100758.40
2022-10-05T03:44:24.108Z,100761.40
2022-10-05T03:47:13.854Z,100765.00
2022-10-05T03:50:07.343Z,100754.80
2022-10-05T03:52:46.989Z,100756.60
2022-10-05T03:55:27.704Z,100755.20
2022-10-05T03:58:04.930Z,100744.80
2022-10-05T04:00:40.524Z,100745.40
2022-10-05T04:03:21.868Z,100748.60
2022-10-05T04:05:59.547Z,100746.80
2022-10-05T04:08:39.126Z,100757.20
2022-10-05T04:11:18.440Z,100761.20
2022-10-05T04:13:57.770Z,100761.80
2022-10-05T04:16:36.449Z,100755.20
2022-10-05T04:19:20.641Z,100744.40
2022-10-05T04:21:58.955Z,100738.80
2022-10-05T04:24:38.447Z,100741.40
2022-10-05T04:27:18.160Z,100748.80
2022-10-05T04:29:59.790Z,100753.40
2022-10-05T04:32:43.338Z,100750.00
2022-10-05T04:35:41.952Z,100757.00
2022-10-05T04:38:36.408Z,100748.40
2022-10-05T04:41:23.356Z,100745.60
2022-10-05T04:44:12.728Z,100740.20
2022-10-05T04:47:04.203Z,100733.40
2022-10-05T04:49:53.128Z,100726.20
2022-10-05T04:52:33.492Z,100723.00
2022-10-05T04:55:20.333Z,100724.20
2022-10-05T04:58:02.587Z,100727.00
2022-10-05T05:00:50.694Z,100725.40
2022-10-05T05:04:02.897Z,100718.80
2022-10-05T05:06:45.148Z,100719.80
2022-10-05T05:10:04.613Z,100726.00
2022-10-05T05:12:50.373Z,100730.20
2022-10-05T05:15:46.824Z,100730.40
2022-10-05T05:18:53.442Z,100733.00
2022-10-05T05:21:40.633Z,100737.60
2022-10-05T05:24:25.293Z,100731.80
2022-10-05T05:27:41.006Z,100729.00
2022-10-05T05:30:23.756Z,100728.20
2022-10-05T05:33:16.592Z,100733.60
2022-10-05T05:36:23.564Z,100733.00
2022-10-05T05:39:16.202Z,100739.00
2022-10-05T05:42:00.190Z,100737.00
2022-10-05T05:44:39.043Z,100740.20
2022-10-05T05:47:22.132Z,100748.20
2022-10-05T05:50:14.271Z,100746.60
2022-10-05T05:52:53.233Z,100745.60
2022-10-05T05:55:32.878Z,100754.80
2022-10-05T05:58:15.330Z,100757.60
2022-10-05T06:00:54.109Z,100755.00
2022-10-05T06:03:36.794Z,100757.00
2022-10-05T06:06:14.972Z,100759.60
2022-10-05T06:08:51.640Z,100751.20
2022-10-05T06:11:53.574Z,100748.20
2022-10-05T06:14:34.545Z,100754.60
2022-10-05T06:17:15.384Z,100755.00
2022-10-05T06:19:50.164Z,100747.00
2022-10-05T06:22:29.690Z,100750.80
2022-10-05T06:25:22.743Z,100747.20
2022-10-05T06:28:12.625Z,100746.40
2022-10-05T06:31:13.903Z,100752.40
2022-10-05T06:33:55.808Z,100762.60
2022-10-05T06:36:45.637Z,100763.40
2022-10-05T06:39:44.063Z,100759.80
2022-10-05T06:42:48.359Z,100757.40
2022-10-05T06:46:02.242Z,100760.80
2022-10-05T06:49:17.386Z,100772.20
2022-10-05T06:52:09.618Z,100772.40
2022-10-05T06:55:04.627Z,100770.00
2022-10-05T06:58:08.226Z,100767.40
2022-10-05T07:00:51.719Z,100767.20
2022-10-05T07:03:37.449Z,100762.00
2022-10-05T07:06:19.900Z,100766.60
2022-10-05T07:09:22.572Z,100761.00
2022-10-05T07:12:18.078Z,100763.00
2022-10-05T07:15:11.835Z,100757.80
2022-10-05T07:17:56.118Z,100758.00
2022-10-05T07:20:34.830Z,100756.20
2022-10-05T07:23:25.604Z,100760.80
2022-10-05T07:26:07.588Z,100770.80
2022-10-05T07:28:49.021Z,100769.40
2022-10-05T07:31:34.880Z,100771.40
2022-10-05T07:34:13.814Z,100775.20
2022-10-05T07:37:14.436Z,100775.00
2022-10-05T07:40:00.905Z,100778.20
2022-10-05T07:42:56.672Z,100777.40
2022-10-05T07:45:42.429Z,100779.20
2022-10-05T07:48:23.306Z,100776.60
2022-10-05T07:51:07.809Z,100772.20
2022-10-05T07:53:46.834Z,100774.80
2022-10-05T07:56:30.906Z,100774.00
2022-10-05T07:59:12.444Z,100765.00
2022-10-05T08:01:49.773Z,100762.20
2022-10-05T08:04:28.974Z,100761.00
2022-10-05T08:07:06.769Z,100760.00
2022-10-05T08:09:46.553Z,100751.80
2022-10-05T08:12:45.302Z,100752.40
2022-10-05T08:15:21.976Z,100750.80
2022-10-05T08:17:57.328Z,100747.40
2022-10-05T08:20:41.668Z,100747.20
2022-10-05T08:23:25.432Z,100746.20
2022-10-05T08:26:17.880Z,100743.20
2022-10-05T08:29:13.788Z,100744.60
2022-10-05T08:31:51.307Z,100744.80
2022-10-05T08:34:32.455Z,100750.60
2022-10-05T08:37:10.045Z,100748.80
2022-10-05T08:39:50.712Z,100750.20
2022-10-05T08:43:03.634Z,100747.00
2022-10-05T08:46:14.665Z,100751.20
2022-10-05T08:49:37.684Z,100753.00
2022-10-05T08:52:31.485Z,100751.40
2022-10-05T08:55:39.933Z,100737.40
2022-10-05T08:59:03.135Z,100747.20
2022-10-05T09:01:57.539Z,100749.40
2022-10-05T09:04:55.705Z,100753.40
2022-10-05T09:08:13.232Z,100754.40
2022-10-05T09:11:14.227Z,100750.80
2022-10-05T09:14:30.063Z,100751.80
2022-10-05T09:17:30.808Z,100747.40
2022-10-05T09:20:24.580Z,100745.20
2022-10-05T09:23:15.123Z,100748.40
2022-10-05T09:26:09.491Z,100753.60
2022-10-05T09:28:59.167Z,100751.00
2022-10-05T09:31:59.574Z,100753.20
2022-10-05T09:35:07.414Z,100751.20
2022-10-05T09:38:20.465Z,100758.20
2022-10-05T09:41:41.064Z,100763.40
2022-10-05T09:45:07.646Z,100760.00
2022-10-05T09:48:47.728Z,100756.20
2022-10-05T09:51:56.742Z,100760.20
2022-10-05T09:55:31.882Z,100756.00
2022-10-05T09:58:59.041Z,100746.20
2022-10-05T10:01:48.224Z,100740.60
2022-10-05T10:04:48.558Z,100740.20
2022-10-05T10:07:51.987Z,100738.00
2022-10-05T10:10:55.748Z,100735.60
2022-10-05T10:14:22.560Z,100732.20
2022-10-05T10:17:21.216Z,100725.80
2022-10-05T10:20:31.242Z,100729.80
2022-10-05T10:23:36.998Z,100727.00
2022-10-05T10:26:36.745Z,100717.00
2022-10-05T10:29:47.270Z,100710.60
2022-10-05T10:33:18.118Z,100715.60
2022-10-05T10:36:02.905Z,100712.20
2022-10-05T10:38:50.838Z,100713.80
2022-10-05T10:42:03.744Z,100707.40
2022-10-05T10:45:30.029Z,100707.40
2022-10-05T10:48:12.403Z,100710.20
2022-10-05T10:51:14.054Z,100707.00
2022-10-05T10:54:35.086Z,100711.80
2022-10-05T10:57:15.456Z,100712.00
2022-10-05T11:00:40.229Z,100709.80
2022-10-05T11:03:51.610Z,100714.20
2022-10-05T11:06:58.495Z,100704.40
2022-10-05T11:10:04.781Z,100703.20
2022-10-05T11:13:35.621Z,100708.00
2022-10-05T11:17:09.820Z,100704.20
2022-10-05T11:20:36.944Z,100696.60
2022-10-05T11:23:34.278Z,100695.80
2022-10-05T11:26:41.325Z,100684.80
2022-10-05T11:29:46.885Z,100688.00
2022-10-05T11:33:19.569Z,100692.20
2022-10-05T11:36:21.123Z,100687.60
2022-10-05T11:39:37.245Z,100682.20
2022-10-05T11:42:49.421Z,100682.80
2022-10-05T11:45:36.377Z,100675.60
2022-10-05T11:48:41.268Z,100671.60
2022-10-05T11:52:00.326Z,100672.00
2022-10-05T11:55:19.701Z,100668.20
2022-10-05T11:57:59.253Z,100662.60
2022-10-05T12:00:41.872Z,100661.00
2022-10-05T12:03:38.986Z,100664.20
2022-10-05T12:06:29.150Z,100659.80
2022-10-05T12:09:20.118Z,100655.80
2022-10-05T12:12:07.949Z,100655.40
2022-10-05T12:14:56.614Z,100657.00
2022-10-05T12:17:38.500Z,100655.60
2022-10-05T12:20:21.438Z,100651.00
2022-10-05T12:23:00.542Z,100650.00
2022-10-05T12:25:39.502Z,100648.60
2022-10-05T12:28:18.717Z,100643.00
2022-10-05T12:31:25.981Z,100642.80
2022-10-05T12:34:09.967Z,100643.00
2022-10-05T12:37:04.989Z,100640.20
2022-10-05T12:39:46.874Z,100644.80
2022-10-05T12:42:31.583Z,100646.60
2022-10-05T12:45:29.830Z,100639.60
2022-10-05T12:48:23.969Z,100641.80
2022-10-05T12:51:05.051Z,100639.40
2022-10-05T12:53:50.402Z,100643.00
2022-10-05T12:56:37.397Z,100646.40
2022-10-05T12:59:21.636Z,100646.20
2022-10-05T13:02:05.882Z,100645.40
2022-10-05T13:04:49.410Z,100641.80
2022-10-05T13:07:53.292Z,100648.60
2022-10-05T13:10:40.649Z,100640.60
2022-10-05T13:13:44.810Z,100638.20
2022-10-05T13:16:29.506Z,100634.00
2022-10-05T13:19:19.550Z,100632.20
2022-10-05T13:22:11.004Z,100630.00
2022-10-05T13:24:59.523Z,100629.40
2022-10-05T13:27:35.512Z,100634.80
2022-10-05T13:30:17.526Z,100628.80
2022-10-05T13:32:57.695Z,100630.00
2022-10-05T13:35:46.109Z,100634.60
2022-10-05T13:38:31.171Z,100630.80
2022-10-05T13:41:18.860Z,100628.60
2022-10-05T13:44:05.236Z,100629.60
2022-10-05T13:46:47.208Z,100627.20
2022-10-05T13:49:33.878Z,100623.40
2022-10-05T13:52:29.757Z,100620.60
2022-10-05T13:55:15.666Z,100626.60
2022-10-05T13:58:03.715Z,100621.00
2022-10-05T14:00:48.066Z,100621.00
2022-10-05T14:03:37.058Z,100615.40
2022-10-05T14:06:30.175Z,100618.20
2022-10-05T14:09:03.398Z,100617.40
2022-10-05T14:11:40.419Z,100620.20
2022-10-05T14:14:28.564Z,100621.00
2022-10-05T14:19:51.436Z,100615.60
2022-10-05T14:22:28.221Z,100617.00
2022-10-05T14:25:19.915Z,100610.40
2022-10-05T14:28:24.426Z,100605.60
2022-10-05T14:31:03.629Z,100600.00
2022-10-05T14:33:38.628Z,100599.20
2022-10-05T14:36:33.260Z,100590.60
2022-10-05T14:39:13.119Z,100595.20
2022-10-05T14:41:51.912Z,100599.40
2022-10-05T14:47:24.841Z,100602.00
2022-10-05T14:50:17.966Z,100587.40
2022-10-05T14:53:11.098Z,100587.60
2022-10-05T14:55:58.213Z,100581.40
2022-10-05T14:58:56.824Z,100578.20
2022-10-05T15:01:32.228Z,100572.80
2022-10-05T15:04:23.377Z,100568.40
2022-10-05T15:07:07.325Z,100569.80
2022-10-05T15:10:04.386Z,100567.80
2022-10-05T15:12:44.025Z,100563.20
2022-10-05T15:15:29.599Z,100565.00
2022-10-05T15:18:09.044Z,100568.00
2022-10-05T15:20:52.602Z,100559.40
2022-10-05T15:23:39.588Z,100559.40
2022-10-05T15:26:33.469Z,100557.80
2022-10-05T15:29:19.087Z,100557.20
2022-10-05T15:32:05.350Z,100559.60
2022-10-05T15:34:53.056Z,100558.40
2022-10-05T15:37:33.385Z,100554.20
2022-10-05T15:40:08.032Z,100554.80
2022-10-05T15:42:44.047Z,100551.20
2022-10-05T15:45:24.103Z,100543.00
2022-10-05T15:48:04.534Z,100541.80
2022-10-05T15:50:45.815Z,100542.20
2022-10-05T15:53:28.331Z,100546.40
2022-10-05T15:56:05.308Z,100547.20
2022-10-05T15:58:56.729Z,100544.00
2022-10-05T16:01:47.429Z,100545.80
2022-10-05T16:04:31.139Z,100540.00
2022-10-05T16:07:26.196Z,100539.00
2022-10-05T16:10:08.888Z,100540.20
2022-10-05T16:12:54.879Z,100542.20
2022-10-05T16:15:36.077Z,100539.00
2022-10-05T16:18:47.342Z,100541.00
2022-10-05T16:21:31.055Z,100547.40
2022-10-05T16:24:20.792Z,100546.00
2022-10-05T16:27:05.010Z,100548.80
2022-10-05T16:29:52.876Z,100547.40
2022-10-05T16:32:30.849Z,100547.40
2022-10-05T16:35:22.166Z,100542.40
2022-10-05T16:38:06.110Z,100549.60
2022-10-05T16:40:48.011Z,100546.00
2022-10-05T16:43:36.048Z,100553.00
2022-10-05T16:46:22.349Z,100547.40
2022-10-05T16:49:04.428Z,100550.60
2022-10-05T16:51:50.766Z,100556.00
2022-10-05T16:54:28.853Z,100556.40
2022-10-05T16:57:08.316Z,100555.20
2022-10-05T17:00:20.659Z,100555.40
2022-10-05T17:03:11.416Z,100559.60
2022-10-05T17:06:20.796Z,100562.00
2022-10-05T17:09:17.285Z,100567.20
2022-10-05T17:12:08.626Z,100570.20
2022-10-05T17:14:58.900Z,100569.80
2022-10-05T17:17:57.900Z,100569.80
2022-10-05T17:20:46.339Z,100574.80
2022-10-05T17:23:52.022Z,100573.00
2022-10-05T17:26:59.509Z,100572.00
2022-10-05T17:29:50.030Z,100568.00
2022-10-05T17:32:58.365Z,100563.80
2022-10-05T17:36:19.007Z,100559.80
2022-10-05T17:38:53.137Z,100553.20
2022-10-05T17:41:31.229Z,100556.00
2022-10-05T17:44:27.898Z,100555.80
2022-10-05T17:47:04.971Z,100552.40
2022-10-05T17:50:18.491Z,100549.00
2022-10-05T17:53:40.424Z,100543.00
2022-10-05T17:56:13.413Z,100545.60
2022-10-05T17:59:07.699Z,100544.60
2022-10-05T18:01:42.307Z,100546.60
2022-10-05T18:05:02.111Z,100549.60
2022-10-05T18:07:36.290Z,100549.60
2022-10-05T18:10:29.914Z,100551.00
2022-10-05T18:13:38.208Z,100545.40
2022-10-05T18:16:13.474Z,100545.20
2022-10-05T18:19:00.518Z,100546.60
2022-10-05T18:22:00.382Z,100547.20
2022-10-05T18:24:56.346Z,100541.20
2022-10-05T18:28:17.897Z,100542.60
2022-10-05T18:31:16.995Z,100542.60
2022-10-05T18:34:04.769Z,100542.20
2022-10-05T18:37:09.409Z,100544.80
2022-10-05T18:40:06.467Z,100542.20
2022-10-05T18:42:46.639Z,100540.20
2022-10-05T18:45:33.423Z,100539.20
2022-10-05T18:48:19.560Z,100542.40
2022-10-05T18:50:59.891Z,100542.20
2022-10-05T18:53:43.761Z,100543.00
2022-10-05T18:56:27.557Z,100540.00
2022-10-05T18:59:20.300Z,100536.40
2022-10-05T19:02:13.954Z,100538.20
2022-10-05T19:05:04.375Z,100537.00
2022-10-05T19:07:53.131Z,100540.00
2022-10-05T19:10:35.745Z,100538.60
2022-10-05T19:13:25.719Z,100538.20
2022-10-05T19:16:15.292Z,100537.60
2022-10-05T19:19:16.461Z,100541.00
2022-10-05T19:21:59.882Z,100541.40
2022-10-05T19:24:55.708Z,100545.60
2022-10-05T19:27:41.019Z,100539.60
2022-10-05T19:30:23.275Z,100540.00
2022-10-05T19:33:22.792Z,100533.60
2022-10-05T19:36:19.027Z,100538.20
2022-10-05T19:39:08.364Z,100531.80
2022-10-05T19:42:00.740Z,100535.40
2022-10-05T19:44:54.306Z,100534.80
2022-10-05T19:47:45.311Z,100546.20
2022-10-05T19:50:29.054Z,100548.20
2022-10-05T19:53:15.100Z,100544.60
2022-10-05T19:56:22.676Z,100541.80
2022-10-05T19:58:59.566Z,100549.00
2022-10-05T20:01:35.569Z,100546.80
2022-10-05T20:04:09.718Z,100548.80
2022-10-05T20:06:43.089Z,100545.00
2022-10-05T20:09:26.679Z,100546.20
2022-10-05T20:12:01.043Z,100549.60
2022-10-05T20:14:59.424Z,100553.40
2022-10-05T20:17:50.238Z,100558.20
2022-10-05T20:20:38.337Z,100559.60
2022-10-05T20:23:30.713Z,100563.20
2022-10-05T20:26:21.211Z,100565.20
2022-10-05T20:28:52.756Z,100569.60
2022-10-05T20:31:28.755Z,100572.20
2022-10-05T20:34:04.609Z,100571.60
2022-10-05T20:36:37.767Z,100575.80
2022-10-05T20:39:10.652Z,100576.20
2022-10-05T20:41:43.850Z,100580.40
2022-10-05T20:44:17.082Z,100578.60
2022-10-05T20:46:50.280Z,100591.60
2022-10-05T20:49:25.779Z,100588.60
2022-10-05T20:51:59.407Z,100590.80
2022-10-05T20:54:32.838Z,100594.40
2022-10-05T20:57:06.479Z,100592.20
2022-10-05T20:59:40.255Z,100591.40
2022-10-05T21:02:13.272Z,100594.80
2022-10-05T21:04:47.947Z,100593.20
2022-10-05T21:07:23.494Z,100595.20
2022-10-05T21:09:56.460Z,100594.20
2022-10-05T21:12:29.415Z,100600.00
2022-10-05T21:15:04.965Z,100599.00
2022-10-05T21:17:38.359Z,100598.40
2022-10-05T21:20:13.115Z,100597.20
2022-10-05T21:22:46.073Z,100599.80
2022-10-05T21:25:22.852Z,100600.40
2022-10-05T21:27:55.888Z,100605.60
2022-10-05T21:30:29.031Z,100609.40
2022-10-05T21:33:03.559Z,100614.80
2022-10-05T21:35:36.951Z,100614.20
2022-10-05T21:38:09.870Z,100620.60
2022-10-05T21:40:45.687Z,100626.00
2022-10-05T21:43:18.783Z,100627.40
2022-10-05T21:45:52.158Z,100629.20
2022-10-05T21:48:27.233Z,100636.80
2022-10-05T21:51:00.969Z,100639.20
2022-10-05T21:53:37.965Z,100642.00
2022-10-05T21:56:16.029Z,100642.40
2022-10-05T21:58:50.079Z,100642.20
2022-10-05T22:01:23.242Z,100647.80
2022-10-05T22:04:01.746Z,100647.20
2022-10-05T22:06:35.735Z,100653.60
2022-10-05T22:09:09.129Z,100652.40
2022-10-05T22:11:42.013Z,100654.20
2022-10-05T22:14:17.258Z,100655.60
2022-10-05T22:16:50.675Z,100660.80
2022-10-05T22:19:24.051Z,100657.80
2022-10-05T22:21:57.049Z,100662.40
2022-10-05T22:24:30.023Z,100667.60
2022-10-05T22:27:03.110Z,100673.20
2022-10-05T22:29:36.279Z,100671.40
2022-10-05T22:32:09.338Z,100668.00
2022-10-05T22:34:42.887Z,100668.60
2022-10-05T22:37:15.975Z,100670.80
2022-10-05T22:39:49.510Z,100673.60
2022-10-05T22:42:22.593Z,100670.80
2022-10-05T22:44:55.588Z,100666.60
2022-10-05T22:47:28.907Z,100678.40
2022-10-05T22:50:02.146Z,100679.00
2022-10-05T22:52:35.235Z,100686.80
2022-10-05T22:55:10.444Z,100683.20
2022-10-05T22:57:44.483Z,100688.80
2022-10-05T23:00:19.402Z,100686.60
2022-10-05T23:02:53.838Z,100687.80
2022-10-05T23:05:26.872Z,100687.40
2022-10-05T23:08:01.656Z,100692.60
2022-10-05T23:10:34.675Z,100695.00
2022-10-05T23:13:08.649Z,100694.20
2022-10-05T23:15:42.572Z,100694.20
2022-10-05T23:18:16.842Z,100697.40
2022-10-05T23:20:55.809Z,100697.20
2022-10-05T23:23:29.199Z,100695.60
2022-10-05T23:26:05.541Z,100690.40
2022-10-05T23:28:40.181Z,100699.20
2022-10-05T23:31:14.254Z,100707.40
2022-10-05T23:33:47.395Z,100703.00
2022-10-05T23:36:22.867Z,100709.40
2022-10-05T23:38:55.827Z,100710.00
2022-10-05T23:41:29.331Z,100708.60
2022-10-05T23:44:02.420Z,100712.20
2022-10-05T23:46:35.509Z,100707.40
2022-10-05T23:49:09.018Z,100708.80
2022-10-05T23:51:42.479Z,100704.40
2022-10-05T23:54:16.519Z,100708.40
2022-10-05T23:56:49.602Z,100714.20
2022-10-05T23:59:22.595Z,100711.40
